LOWI Airport Information

Runway Information
Runway 08 Length 6562 ft width 148 ft
Elevation 1906 ft Threshold 339 ft Heading 81
Runway 26 Length 6562 ft Width 148 ft
Elevation 1893 ft Threshold 198 ft Heading 261
Airport Frequencies
Type APP Name APP Frequency 119.275 MHZ
Type ATIS Name ATIS Frequency 126.025 MHZ
Type GND Crew Name Frequency 121.8 MHZ
Type GND Crew Name Frequency 121.9 MHZ
Type TWR Name TWR Frequency 120.1 MHZ
Airport Navaids
Type NDB Name Innsbruck Frequency 420 KHZ
Type NDB Name Kuhtai Frequency 413 KHZ
Airport Weather Information & NOTAM
ADDS - METARS form results

(1458 UTC 26 February 2021)
Data provider http://aviationweather.gov/metar/data/
 
METAR text: LOWI 261450Z VRB01KT CAVOK 17/M04 Q1026 NOSIG
Conditions at: LOWI (INNSBRUCK AIRPOR, AT) observed 1450 UTC 26 February 2021
Temperature: 17.0°C (63°F)
Dewpoint: -4.0°C (25°F) [RH = 23%]
Pressure (altimeter): 30.30 inches Hg (1026.0 mb)
Winds: variable direction winds at 1 MPH (1 knots; 0.5 m/s)
Visibility: 6 or more miles (10+ km)
Ceiling: ceiling and visibility are OK
Clouds: unknown
Weather: no significant weather observed at this time

METAR text: LOWI 261420Z 17003KT CAVOK 17/M04 Q1026 NOSIG
Conditions at: LOWI (INNSBRUCK AIRPOR, AT) observed 1420 UTC 26 February 2021
Temperature: 17.0°C (63°F)
Dewpoint: -4.0°C (25°F) [RH = 23%]
Pressure (altimeter): 30.30 inches Hg (1026.0 mb)
Winds: from the S (170 degrees) at 3 MPH (3 knots; 1.5 m/s)
Visibility: 6 or more miles (10+ km)
Ceiling: ceiling and visibility are OK
Clouds: unknown
Weather: no significant weather observed at this time

Forecast for: LOWI (INNSBRUCK AIRPOR, AT)
Text: TAF LOWI 261115Z 2612/2712 VRB03KT CAVOK TX18/2615Z TN03/2706Z
Forecast period: 1200 UTC 26 February 2021 to 0800 UTC 27 February 2021
Forecast type: FROM: standard forecast or significant change
Winds: variable direction winds at 3 MPH (3 knots; 1.5 m/s)
Visibility: 6 or more miles (10+ km)
Ceiling: unknown
Clouds: missing
Weather: no significant weather forecast for this period
Text: TEMPO 2700/2710 27012KT 8000 -SHRA
Forecast period: 0000 to 1000 UTC 27 February 2021
Forecast type: TEMPORARY: The following changes expected for less than half the time period
Winds: from the W (270 degrees) at 14 MPH (12 knots; 6.2 m/s)
Visibility: 5 miles (8 km)
Ceiling: unknown
Clouds: missing
Weather: -SHRA  (light rain showers)
Text: BECMG 2708/2710 08008KT
Forecast period: 0800 to 1200 UTC 27 February 2021
Forecast type: BECOMING: Conditions expected to become as follows by 1000 UTC 27 February 2021
Winds: from the E (80 degrees) at 9 MPH (8 knots; 4.1 m/s)
Visibility: 6 or more miles (10+ km)
Ceiling: unknown
Clouds: missing
Weather: no significant weather forecast for this period